createdAt,value
2018-05-15T00:00:27.815Z,1008.79
2018-05-15T00:01:27.846Z,1008.78
2018-05-15T00:02:27.879Z,1008.76
2018-05-15T00:03:27.909Z,1008.81
2018-05-15T00:04:27.946Z,1008.79
2018-05-15T00:05:28.272Z,1008.80
2018-05-15T00:06:27.999Z,1008.81
2018-05-15T00:07:28.033Z,1008.83
2018-05-15T00:08:28.061Z,1008.82
2018-05-15T00:09:28.091Z,1008.87
2018-05-15T00:10:28.130Z,1008.84
2018-05-15T00:11:28.155Z,1008.87
2018-05-15T00:12:28.485Z,1008.90
2018-05-15T00:13:28.216Z,1008.93
2018-05-15T00:14:28.246Z,1008.92
2018-05-15T00:15:28.276Z,1008.97
2018-05-15T00:16:28.309Z,1008.98
2018-05-15T00:17:28.346Z,1008.97
2018-05-15T00:18:28.433Z,1008.99
2018-05-15T00:19:28.656Z,1008.99
2018-05-15T00:20:28.432Z,1009.02
2018-05-15T00:21:28.466Z,1009.03
2018-05-15T00:22:28.494Z,1009.00
2018-05-15T00:23:28.524Z,1009.05
2018-05-15T00:24:28.559Z,1009.05
2018-05-15T00:25:28.585Z,1009.03
2018-05-15T00:26:28.866Z,1009.03
2018-05-15T00:27:28.652Z,1009.03
2018-05-15T00:28:28.677Z,1009.08
2018-05-15T00:29:28.710Z,1009.08
2018-05-15T00:30:28.739Z,1009.06
2018-05-15T00:31:28.772Z,1009.10
2018-05-15T00:32:28.798Z,1009.12
2018-05-15T00:33:29.080Z,1009.11
2018-05-15T00:34:28.961Z,1009.14
2018-05-15T00:35:28.896Z,1009.10
2018-05-15T00:36:28.926Z,1009.14
2018-05-15T00:37:28.955Z,1009.13
2018-05-15T00:38:28.992Z,1009.13
2018-05-15T00:39:29.015Z,1009.12
2018-05-15T00:40:29.317Z,1009.11
2018-05-15T00:41:29.085Z,1009.12
2018-05-15T00:42:29.107Z,1009.12
2018-05-15T00:43:29.138Z,1009.15
2018-05-15T00:44:29.168Z,1009.16
2018-05-15T00:45:29.199Z,1009.17
2018-05-15T00:46:29.232Z,1009.15
2018-05-15T00:47:29.510Z,1009.14
2018-05-15T00:48:29.291Z,1009.09
2018-05-15T00:49:29.320Z,1009.09
2018-05-15T00:50:29.361Z,1009.08
2018-05-15T00:51:29.406Z,1009.12
2018-05-15T00:52:29.412Z,1009.12
2018-05-15T00:53:29.749Z,1009.08
2018-05-15T00:54:29.474Z,1009.11
2018-05-15T00:55:29.505Z,1009.08
2018-05-15T00:56:29.536Z,1009.08
2018-05-15T00:57:29.570Z,1009.09
2018-05-15T00:58:29.604Z,1009.09
2018-05-15T00:59:29.876Z,1009.10
2018-05-15T01:00:29.654Z,1009.10
2018-05-15T01:01:29.701Z,1009.11
2018-05-15T01:02:29.734Z,1009.07
2018-05-15T01:03:29.747Z,1009.09
2018-05-15T01:04:29.777Z,1009.06
2018-05-15T01:05:30.117Z,1009.09
2018-05-15T01:06:29.881Z,1009.07
2018-05-15T01:07:29.873Z,1009.13
2018-05-15T01:08:29.899Z,1009.13
2018-05-15T01:09:29.939Z,1009.16
2018-05-15T01:10:29.964Z,1009.14
2018-05-15T01:11:30.243Z,1009.16
2018-05-15T01:12:30.023Z,1009.13
2018-05-15T01:13:30.051Z,1009.15
2018-05-15T01:14:30.095Z,1009.13
2018-05-15T01:15:30.117Z,1009.11
2018-05-15T01:16:30.170Z,1009.12
2018-05-15T01:17:30.477Z,1009.11
2018-05-15T01:18:30.205Z,1009.13
2018-05-15T01:19:30.240Z,1009.12
2018-05-15T01:20:30.270Z,1009.14
2018-05-15T01:21:30.303Z,1009.11
2018-05-15T01:22:30.333Z,1009.14
2018-05-15T01:23:30.610Z,1009.12
2018-05-15T01:24:30.400Z,1009.13
2018-05-15T01:25:30.429Z,1009.16
2018-05-15T01:26:30.454Z,1009.14
2018-05-15T01:27:30.495Z,1009.08
2018-05-15T01:28:30.509Z,1009.11
2018-05-15T01:29:30.849Z,1009.12
2018-05-15T01:30:30.585Z,1009.13
2018-05-15T01:31:30.600Z,1009.15
2018-05-15T01:32:30.633Z,1009.14
2018-05-15T01:33:30.677Z,1009.16
2018-05-15T01:34:30.692Z,1009.11
2018-05-15T01:35:31.028Z,1009.17
2018-05-15T01:36:30.759Z,1009.15
2018-05-15T01:37:30.821Z,1009.13
2018-05-15T01:38:30.814Z,1009.15
2018-05-15T01:39:30.883Z,1009.14
2018-05-15T01:40:30.878Z,1009.12
2018-05-15T01:41:31.205Z,1009.11
2018-05-15T01:42:30.935Z,1009.11
2018-05-15T01:43:30.967Z,1009.11
2018-05-15T01:44:31.000Z,1009.13
2018-05-15T01:45:31.043Z,1009.10
2018-05-15T01:46:31.058Z,1009.12
2018-05-15T01:47:31.338Z,1009.13
2018-05-15T01:48:31.124Z,1009.11
2018-05-15T01:49:31.150Z,1009.09
2018-05-15T01:50:31.241Z,1009.12
2018-05-15T01:51:31.210Z,1009.14
2018-05-15T01:52:31.244Z,1009.10
2018-05-15T01:53:31.577Z,1009.11
2018-05-15T01:54:31.305Z,1009.12
2018-05-15T01:55:31.336Z,1009.07
2018-05-15T01:56:31.375Z,1009.09
2018-05-15T01:57:31.400Z,1009.09
2018-05-15T01:58:31.472Z,1009.08
2018-05-15T01:59:31.766Z,1009.12
2018-05-15T02:00:31.576Z,1009.11
2018-05-15T02:01:31.608Z,1009.11
2018-05-15T02:02:31.559Z,1009.10
2018-05-15T02:03:31.572Z,1009.09
2018-05-15T02:04:31.596Z,1009.12
2018-05-15T02:05:31.657Z,1009.10
2018-05-15T02:06:31.907Z,1009.14
2018-05-15T02:07:31.691Z,1009.14
2018-05-15T02:08:31.720Z,1009.14
2018-05-15T02:09:31.756Z,1009.17
2018-05-15T02:10:31.778Z,1009.15
2018-05-15T02:11:31.811Z,1009.17
2018-05-15T02:12:31.845Z,1009.17
2018-05-15T02:13:32.119Z,1009.19
2018-05-15T02:14:31.904Z,1009.19
2018-05-15T02:15:31.953Z,1009.18
2018-05-15T02:16:31.963Z,1009.21
2018-05-15T02:17:31.995Z,1009.16
2018-05-15T02:18:32.026Z,1009.19
2018-05-15T02:19:32.052Z,1009.19
2018-05-15T02:20:32.358Z,1009.16
2018-05-15T02:21:32.111Z,1009.16
2018-05-15T02:22:32.199Z,1009.15
2018-05-15T02:23:32.181Z,1009.20
2018-05-15T02:24:32.226Z,1009.21
2018-05-15T02:25:32.231Z,1009.25
2018-05-15T02:26:32.262Z,1009.23
2018-05-15T02:27:32.595Z,1009.24
2018-05-15T02:28:32.319Z,1009.25
2018-05-15T02:29:32.371Z,1009.27
2018-05-15T02:30:32.474Z,1009.26
2018-05-15T02:31:32.435Z,1009.23
2018-05-15T02:32:32.438Z,1009.23
2018-05-15T02:33:32.480Z,1009.24
2018-05-15T02:34:32.826Z,1009.23
2018-05-15T02:35:32.642Z,1009.23
2018-05-15T02:36:32.563Z,1009.22
2018-05-15T02:37:32.596Z,1009.21
2018-05-15T02:38:32.640Z,1009.23
2018-05-15T02:39:32.664Z,1009.22
2018-05-15T02:40:32.680Z,1009.22
2018-05-15T02:41:32.958Z,1009.19
2018-05-15T02:42:32.747Z,1009.22
2018-05-15T02:43:32.774Z,1009.21
2018-05-15T02:44:32.805Z,1009.23
2018-05-15T02:45:32.833Z,1009.22
2018-05-15T02:46:32.915Z,1009.24
2018-05-15T02:47:32.904Z,1009.23
2018-05-15T02:48:33.179Z,1009.24
2018-05-15T02:49:32.949Z,1009.25
2018-05-15T02:50:32.984Z,1009.24
2018-05-15T02:51:33.020Z,1009.26
2018-05-15T02:52:33.037Z,1009.29
2018-05-15T02:53:33.081Z,1009.26
2018-05-15T02:54:33.146Z,1009.30
2018-05-15T02:55:33.460Z,1009.27
2018-05-15T02:56:33.162Z,1009.31
2018-05-15T02:57:33.208Z,1009.31
2018-05-15T02:58:33.217Z,1009.32
2018-05-15T02:59:33.258Z,1009.33
2018-05-15T03:00:33.297Z,1009.34
2018-05-15T03:01:33.311Z,1009.36
2018-05-15T03:02:33.639Z,1009.32
2018-05-15T03:03:33.367Z,1009.38
2018-05-15T03:04:33.419Z,1009.38
2018-05-15T03:05:33.427Z,1009.39
2018-05-15T03:06:33.460Z,1009.34
2018-05-15T03:07:33.484Z,1009.33
2018-05-15T03:08:33.513Z,1009.36
2018-05-15T03:09:33.801Z,1009.36
2018-05-15T03:10:33.577Z,1009.35
2018-05-15T03:11:33.664Z,1009.36
2018-05-15T03:12:33.645Z,1009.36
2018-05-15T03:13:33.680Z,1009.38
2018-05-15T03:14:33.703Z,1009.38
2018-05-15T03:15:33.746Z,1009.37
2018-05-15T03:16:34.321Z,1009.37
2018-05-15T03:17:33.780Z,1009.36
2018-05-15T03:18:33.815Z,1009.37
2018-05-15T03:19:33.846Z,1009.38
2018-05-15T03:20:33.879Z,1009.40
2018-05-15T03:21:33.902Z,1009.39
2018-05-15T03:22:33.961Z,1009.38
2018-05-15T03:23:34.259Z,1009.39
2018-05-15T03:24:33.989Z,1009.41
2018-05-15T03:25:34.048Z,1009.46
2018-05-15T03:26:34.261Z,1009.51
2018-05-15T03:27:34.079Z,1009.50
2018-05-15T03:28:34.109Z,1009.50
2018-05-15T03:29:34.390Z,1009.51
2018-05-15T03:30:34.167Z,1009.50
2018-05-15T03:31:34.201Z,1009.52
2018-05-15T03:32:34.227Z,1009.53
2018-05-15T03:33:34.259Z,1009.54
2018-05-15T03:34:34.342Z,1009.57
2018-05-15T03:35:34.570Z,1009.55
2018-05-15T03:36:34.371Z,1009.54
2018-05-15T03:37:34.492Z,1009.54
2018-05-15T03:38:34.417Z,1009.55
2018-05-15T03:39:34.440Z,1009.58
2018-05-15T03:40:34.467Z,1009.57
2018-05-15T03:41:34.797Z,1009.57
2018-05-15T03:42:34.528Z,1009.60
2018-05-15T03:43:34.551Z,1009.56
2018-05-15T03:44:34.581Z,1009.63
2018-05-15T03:45:34.634Z,1009.63
2018-05-15T03:46:34.650Z,1009.62
2018-05-15T03:47:34.976Z,1009.62
2018-05-15T03:48:34.708Z,1009.61
2018-05-15T03:49:34.731Z,1009.60
2018-05-15T03:50:34.757Z,1009.62
2018-05-15T03:51:34.798Z,1009.63
2018-05-15T03:52:34.819Z,1009.61
2018-05-15T03:53:35.107Z,1009.64
2018-05-15T03:54:34.877Z,1009.66
2018-05-15T03:55:34.921Z,1009.68
2018-05-15T03:56:34.957Z,1009.64
2018-05-15T03:57:34.993Z,1009.67
2018-05-15T03:58:34.999Z,1009.65
2018-05-15T03:59:35.276Z,1009.65
2018-05-15T04:00:35.054Z,1009.66
2018-05-15T04:01:35.089Z,1009.68
2018-05-15T04:02:35.191Z,1009.70
2018-05-15T04:03:35.153Z,1009.68
2018-05-15T04:04:35.193Z,1009.68
2018-05-15T04:05:35.506Z,1009.70
2018-05-15T04:06:35.235Z,1009.71
2018-05-15T04:07:35.275Z,1009.70
2018-05-15T04:08:35.349Z,1009.72
2018-05-15T04:09:35.328Z,1009.68
2018-05-15T04:10:35.352Z,1009.70
2018-05-15T04:11:35.698Z,1009.71
2018-05-15T04:12:35.418Z,1009.74
2018-05-15T04:13:35.440Z,1009.74
2018-05-15T04:14:35.570Z,1009.76
2018-05-15T04:15:35.511Z,1009.78
2018-05-15T04:16:35.535Z,1009.76
2018-05-15T04:17:35.584Z,1009.81
2018-05-15T04:18:35.589Z,1009.82
2018-05-15T04:19:35.717Z,1009.80
2018-05-15T04:20:35.664Z,1009.80
2018-05-15T04:21:35.674Z,1009.82
2018-05-15T04:22:35.712Z,1009.83
2018-05-15T04:23:36.042Z,1009.85
2018-05-15T04:24:35.765Z,1009.81
2018-05-15T04:25:35.833Z,1009.85
2018-05-15T04:26:35.830Z,1009.86
2018-05-15T04:27:35.872Z,1009.84
2018-05-15T04:28:35.886Z,1009.83
2018-05-15T04:29:36.174Z,1009.85
2018-05-15T04:30:35.940Z,1009.84
2018-05-15T04:31:35.984Z,1009.87
2018-05-15T04:32:36.000Z,1009.86
2018-05-15T04:33:36.148Z,1009.89
2018-05-15T04:34:36.101Z,1009.89
2018-05-15T04:35:36.121Z,1009.89
2018-05-15T04:36:36.426Z,1009.84
2018-05-15T04:37:36.184Z,1009.82
2018-05-15T04:38:36.193Z,1009.82
2018-05-15T04:39:36.215Z,1009.82
2018-05-15T04:40:36.246Z,1009.83
2018-05-15T04:41:36.267Z,1009.81
2018-05-15T04:42:36.347Z,1009.83
2018-05-15T04:43:36.664Z,1009.85
2018-05-15T04:44:36.362Z,1009.84
2018-05-15T04:45:36.389Z,1009.89
2018-05-15T04:46:36.415Z,1009.90
2018-05-15T04:47:36.491Z,1009.92
2018-05-15T04:48:36.469Z,1009.90
2018-05-15T04:49:36.571Z,1009.90
2018-05-15T04:50:36.784Z,1009.92
2018-05-15T04:51:36.600Z,1009.88
2018-05-15T04:52:36.600Z,1009.91
2018-05-15T04:53:36.634Z,1009.93
2018-05-15T04:54:36.657Z,1009.93
2018-05-15T04:55:36.688Z,1009.96
2018-05-15T04:56:36.712Z,1009.97
2018-05-15T04:57:37.195Z,1010.00
2018-05-15T04:58:36.773Z,1010.01
2018-05-15T04:59:36.803Z,1010.02
2018-05-15T05:00:36.929Z,1010.03
2018-05-15T05:01:36.864Z,1010.01
2018-05-15T05:02:36.891Z,1009.98
2018-05-15T05:03:36.926Z,1010.01
2018-05-15T05:04:37.242Z,1010.02
2018-05-15T05:05:36.987Z,1010.03
2018-05-15T05:06:37.006Z,1010.07
2018-05-15T05:07:37.052Z,1010.06
2018-05-15T05:08:37.067Z,1010.05
2018-05-15T05:09:37.094Z,1010.07
2018-05-15T05:10:37.125Z,1010.09
2018-05-15T05:11:37.452Z,1010.10
2018-05-15T05:12:37.180Z,1010.11
2018-05-15T05:13:37.210Z,1010.08
2018-05-15T05:14:37.256Z,1010.10
2018-05-15T05:15:37.284Z,1010.11
2018-05-15T05:16:37.315Z,1010.10
2018-05-15T05:17:37.328Z,1010.13
2018-05-15T05:18:37.613Z,1010.12
2018-05-15T05:19:37.393Z,1010.15
2018-05-15T05:20:37.443Z,1010.12
2018-05-15T05:21:37.447Z,1010.15
2018-05-15T05:22:37.490Z,1010.16
2018-05-15T05:23:37.508Z,1010.17
2018-05-15T05:24:37.542Z,1010.14
2018-05-15T05:25:37.871Z,1010.13
2018-05-15T05:26:37.598Z,1010.15
2018-05-15T05:27:37.632Z,1010.15
2018-05-15T05:28:37.668Z,1010.14
2018-05-15T05:29:37.691Z,1010.17
2018-05-15T05:30:37.776Z,1010.18
2018-05-15T05:31:37.753Z,1010.17
2018-05-15T05:32:38.025Z,1010.19
2018-05-15T05:33:37.804Z,1010.23
2018-05-15T05:34:37.867Z,1010.21
2018-05-15T05:35:37.870Z,1010.24
2018-05-15T05:36:37.927Z,1010.23
2018-05-15T05:37:37.938Z,1010.28
2018-05-15T05:38:37.960Z,1010.23
2018-05-15T05:39:38.286Z,1010.29
2018-05-15T05:40:38.014Z,1010.29
2018-05-15T05:41:38.041Z,1010.33
2018-05-15T05:42:38.077Z,1010.30
2018-05-15T05:43:38.120Z,1010.28
2018-05-15T05:44:38.143Z,1010.29
2018-05-15T05:45:38.175Z,1010.30
2018-05-15T05:46:38.563Z,1010.32
2018-05-15T05:47:38.225Z,1010.33
2018-05-15T05:48:38.257Z,1010.30
2018-05-15T05:49:38.310Z,1010.31
2018-05-15T05:50:38.313Z,1010.31
2018-05-15T05:51:38.350Z,1010.33
2018-05-15T05:52:38.683Z,1010.36
2018-05-15T05:53:38.414Z,1010.34
2018-05-15T05:54:38.462Z,1010.39
2018-05-15T05:55:38.460Z,1010.39
2018-05-15T05:56:38.500Z,1010.46
2018-05-15T05:57:38.525Z,1010.38
2018-05-15T05:58:38.567Z,1010.44
2018-05-15T05:59:38.587Z,1010.43
2018-05-15T06:00:38.620Z,1010.43
2018-05-15T06:01:38.642Z,1010.45
2018-05-15T06:02:38.727Z,1010.44
2018-05-15T06:03:38.717Z,1010.46
2018-05-15T06:04:39.045Z,1010.45
2018-05-15T06:05:38.795Z,1010.46
2018-05-15T06:06:38.843Z,1010.48
2018-05-15T06:07:38.857Z,1010.43
2018-05-15T06:08:38.874Z,1010.46
2018-05-15T06:09:38.883Z,1010.45
2018-05-15T06:10:39.219Z,1010.43
2018-05-15T06:11:38.948Z,1010.42
2018-05-15T06:12:38.979Z,1010.46
2018-05-15T06:13:39.008Z,1010.47
2018-05-15T06:14:39.034Z,1010.52
2018-05-15T06:15:39.069Z,1010.50
2018-05-15T06:16:39.418Z,1010.51
2018-05-15T06:17:39.126Z,1010.50
2018-05-15T06:18:39.162Z,1010.48
2018-05-15T06:19:39.192Z,1010.49
2018-05-15T06:20:39.273Z,1010.46
2018-05-15T06:21:39.244Z,1010.48
2018-05-15T06:22:39.582Z,1010.50
2018-05-15T06:23:39.317Z,1010.52
2018-05-15T06:24:39.351Z,1010.51
2018-05-15T06:25:39.374Z,1010.52
2018-05-15T06:26:39.399Z,1010.52
2018-05-15T06:27:39.431Z,1010.54
2018-05-15T06:28:39.759Z,1010.55
2018-05-15T06:29:39.491Z,1010.55
2018-05-15T06:30:39.572Z,1010.53
2018-05-15T06:31:39.554Z,1010.54
2018-05-15T06:32:39.580Z,1010.58
2018-05-15T06:33:39.629Z,1010.57
2018-05-15T06:34:39.971Z,1010.58
2018-05-15T06:35:39.675Z,1010.56
2018-05-15T06:36:39.717Z,1010.57
2018-05-15T06:37:39.739Z,1010.60
2018-05-15T06:38:39.762Z,1010.58
2018-05-15T06:39:39.797Z,1010.56
2018-05-15T06:40:40.076Z,1010.61
2018-05-15T06:41:39.856Z,1010.60
2018-05-15T06:42:39.972Z,1010.59
2018-05-15T06:43:39.929Z,1010.57
2018-05-15T06:44:39.961Z,1010.57
2018-05-15T06:45:39.986Z,1010.57
2018-05-15T06:46:40.344Z,1010.59
2018-05-15T06:47:40.042Z,1010.61
2018-05-15T06:48:40.075Z,1010.61
2018-05-15T06:49:40.100Z,1010.61
2018-05-15T06:50:40.136Z,1010.62
2018-05-15T06:51:40.166Z,1010.59
2018-05-15T06:52:40.500Z,1010.62
2018-05-15T06:53:40.240Z,1010.63
2018-05-15T06:54:40.265Z,1010.62
2018-05-15T06:55:40.296Z,1010.62
2018-05-15T06:56:40.318Z,1010.68
2018-05-15T06:57:40.345Z,1010.64
2018-05-15T06:58:40.677Z,1010.68
2018-05-15T06:59:40.413Z,1010.64
2018-05-15T07:00:40.437Z,1010.66
2018-05-15T07:01:40.475Z,1010.67
2018-05-15T07:02:40.502Z,1010.65
2018-05-15T07:03:40.529Z,1010.67
2018-05-15T07:04:40.858Z,1010.68
2018-05-15T07:05:40.593Z,1010.70
2018-05-15T07:06:40.620Z,1010.71
2018-05-15T07:07:40.666Z,1010.74
2018-05-15T07:08:40.677Z,1010.76
2018-05-15T07:09:40.713Z,1010.76
2018-05-15T07:10:40.749Z,1010.75
2018-05-15T07:11:41.019Z,1010.76
2018-05-15T07:12:40.830Z,1010.78
2018-05-15T07:13:40.832Z,1010.77
2018-05-15T07:14:40.873Z,1010.79
2018-05-15T07:15:40.918Z,1010.79
2018-05-15T07:16:40.940Z,1010.79
2018-05-15T07:17:41.059Z,1010.79
2018-05-15T07:18:41.240Z,1010.78
2018-05-15T07:19:41.022Z,1010.76
2018-05-15T07:20:41.047Z,1010.74
2018-05-15T07:21:41.082Z,1010.77
2018-05-15T07:22:41.109Z,1010.79
2018-05-15T07:23:41.143Z,1010.76
2018-05-15T07:24:41.177Z,1010.73
2018-05-15T07:25:41.456Z,1010.80
2018-05-15T07:26:41.234Z,1010.76
2018-05-15T07:27:41.261Z,1010.75
2018-05-15T07:28:41.295Z,1010.79
2018-05-15T07:29:41.322Z,1010.78
2018-05-15T07:30:41.381Z,1010.78
2018-05-15T07:31:41.389Z,1010.78
2018-05-15T07:32:41.415Z,1010.75
2018-05-15T07:33:41.485Z,1010.75
2018-05-15T07:34:41.789Z,1010.74
2018-05-15T07:35:41.512Z,1010.75
2018-05-15T07:36:41.550Z,1010.76
2018-05-15T07:37:41.567Z,1010.75
2018-05-15T07:38:41.859Z,1010.83
2018-05-15T07:39:41.630Z,1010.85
2018-05-15T07:40:41.664Z,1010.84
2018-05-15T07:41:41.712Z,1010.82
2018-05-15T07:42:41.728Z,1010.88
2018-05-15T07:43:41.803Z,1010.88
2018-05-15T07:44:41.794Z,1010.87
2018-05-15T07:45:42.129Z,1010.87
2018-05-15T07:46:41.853Z,1010.89
2018-05-15T07:47:41.879Z,1010.88
2018-05-15T07:48:41.918Z,1010.90
2018-05-15T07:49:41.943Z,1010.86
2018-05-15T07:50:41.992Z,1010.89
2018-05-15T07:51:42.001Z,1010.90
2018-05-15T07:52:42.339Z,1010.88
2018-05-15T07:53:42.086Z,1010.92
2018-05-15T07:54:42.142Z,1010.90
2018-05-15T07:55:42.126Z,1010.90
2018-05-15T07:56:42.154Z,1010.92
2018-05-15T07:57:42.188Z,1010.94
2018-05-15T07:58:42.278Z,1010.91
2018-05-15T07:59:42.553Z,1010.91
2018-05-15T08:00:42.283Z,1010.89
2018-05-15T08:01:42.313Z,1010.89
2018-05-15T08:02:42.341Z,1010.91
2018-05-15T08:03:42.374Z,1010.91
2018-05-15T08:04:42.454Z,1010.96
2018-05-15T08:05:42.436Z,1010.94
2018-05-15T08:06:42.767Z,1010.88
2018-05-15T08:07:42.499Z,1010.90
2018-05-15T08:08:42.531Z,1010.91
2018-05-15T08:09:42.569Z,1010.95
2018-05-15T08:10:42.588Z,1010.92
2018-05-15T08:11:42.738Z,1010.90
2018-05-15T08:12:42.653Z,1010.94
2018-05-15T08:13:42.981Z,1010.93
2018-05-15T08:14:42.717Z,1010.90
2018-05-15T08:15:42.766Z,1010.94
2018-05-15T08:16:42.784Z,1010.91
2018-05-15T08:17:42.912Z,1010.90
2018-05-15T08:18:42.851Z,1010.92
2018-05-15T08:19:42.871Z,1010.92
2018-05-15T08:20:43.204Z,1010.97
2018-05-15T08:21:42.933Z,1010.94
2018-05-15T08:22:42.966Z,1010.92
2018-05-15T08:23:43.051Z,1010.96
2018-05-15T08:24:43.035Z,1010.94
2018-05-15T08:25:43.064Z,1010.94
2018-05-15T08:26:43.471Z,1010.93
2018-05-15T08:27:43.124Z,1010.92
2018-05-15T08:28:43.160Z,1010.93
2018-05-15T08:29:43.188Z,1010.93
2018-05-15T08:30:43.247Z,1010.91
2018-05-15T08:31:43.247Z,1010.94
2018-05-15T08:32:43.605Z,1010.92
2018-05-15T08:33:43.310Z,1010.91
2018-05-15T08:34:43.401Z,1010.92
2018-05-15T08:35:43.544Z,1010.91
2018-05-15T08:36:43.414Z,1010.91
2018-05-15T08:37:43.500Z,1010.90
2018-05-15T08:38:43.965Z,1010.93
2018-05-15T08:39:43.495Z,1010.95
2018-05-15T08:40:43.525Z,1010.94
2018-05-15T08:41:43.562Z,1010.91
2018-05-15T08:42:43.589Z,1010.93
2018-05-15T08:43:43.620Z,1010.95
2018-05-15T08:44:43.949Z,1010.97
2018-05-15T08:45:43.689Z,1010.97
2018-05-15T08:46:43.712Z,1010.97
2018-05-15T08:47:43.748Z,1010.96
2018-05-15T08:48:43.793Z,1010.95
2018-05-15T08:49:43.860Z,1010.94
2018-05-15T08:50:44.142Z,1010.94
2018-05-15T08:51:43.873Z,1010.95
2018-05-15T08:52:43.903Z,1010.93
2018-05-15T08:53:43.938Z,1010.97
2018-05-15T08:54:43.974Z,1010.96
2018-05-15T08:55:43.995Z,1011.01
2018-05-15T08:56:44.324Z,1010.96
2018-05-15T08:57:44.060Z,1010.99
2018-05-15T08:58:44.090Z,1010.95
2018-05-15T08:59:44.122Z,1010.95
2018-05-15T09:00:44.146Z,1010.94
2018-05-15T09:01:44.189Z,1010.94
2018-05-15T09:02:44.510Z,1010.88
2018-05-15T09:03:44.244Z,1010.89
2018-05-15T09:04:44.277Z,1010.90
2018-05-15T09:05:44.316Z,1010.92
2018-05-15T09:06:44.338Z,1010.86
2018-05-15T09:07:44.367Z,1010.87
2018-05-15T09:08:44.696Z,1010.84
2018-05-15T09:09:44.429Z,1010.84
2018-05-15T09:10:44.461Z,1010.82
2018-05-15T09:11:44.498Z,1010.79
2018-05-15T09:12:44.544Z,1010.80
2018-05-15T09:13:44.560Z,1010.77
2018-05-15T09:14:44.904Z,1010.80
2018-05-15T09:15:44.628Z,1010.83
2018-05-15T09:16:44.652Z,1010.80
2018-05-15T09:17:44.684Z,1010.81
2018-05-15T09:18:44.730Z,1010.79
2018-05-15T09:19:44.744Z,1010.82
2018-05-15T09:20:45.074Z,1010.81
2018-05-15T09:21:44.809Z,1010.84
2018-05-15T09:22:44.915Z,1010.75
2018-05-15T09:23:44.869Z,1010.77
2018-05-15T09:24:44.896Z,1010.79
2018-05-15T09:25:44.931Z,1010.77
2018-05-15T09:26:45.213Z,1010.79
2018-05-15T09:27:45.001Z,1010.82
2018-05-15T09:28:45.028Z,1010.80
2018-05-15T09:29:45.073Z,1010.73
2018-05-15T09:30:45.131Z,1010.76
2018-05-15T09:31:45.119Z,1010.77
2018-05-15T09:32:45.553Z,1010.80
2018-05-15T09:33:45.181Z,1010.80
2018-05-15T09:34:45.213Z,1010.79
2018-05-15T09:35:45.254Z,1010.80
2018-05-15T09:36:45.276Z,1010.78
2018-05-15T09:37:45.311Z,1010.81
2018-05-15T09:38:45.641Z,1010.80
2018-05-15T09:39:45.373Z,1010.81
2018-05-15T09:40:45.404Z,1010.85
2018-05-15T09:41:45.435Z,1010.85
2018-05-15T09:42:45.465Z,1010.82
2018-05-15T09:43:45.563Z,1010.80
2018-05-15T09:44:45.534Z,1010.83
2018-05-15T09:45:45.857Z,1010.81
2018-05-15T09:46:45.592Z,1010.85
2018-05-15T09:47:45.623Z,1010.86
2018-05-15T09:48:45.654Z,1010.85
2018-05-15T09:49:45.684Z,1010.87
2018-05-15T09:50:45.715Z,1010.91
2018-05-15T09:51:45.747Z,1010.95
2018-05-15T09:52:46.086Z,1010.94
2018-05-15T09:53:45.809Z,1010.96
2018-05-15T09:54:45.846Z,1010.94
2018-05-15T09:55:45.875Z,1010.88
2018-05-15T09:56:45.905Z,1010.86
2018-05-15T09:57:45.945Z,1010.89
2018-05-15T09:58:45.967Z,1010.87
2018-05-15T09:59:46.310Z,1010.87
2018-05-15T10:00:46.036Z,1010.84
2018-05-15T10:01:46.067Z,1010.80
2018-05-15T10:02:46.099Z,1010.82
2018-05-15T10:03:46.129Z,1010.85
2018-05-15T10:04:46.159Z,1010.82
2018-05-15T10:05:46.185Z,1010.86
2018-05-15T10:06:46.472Z,1010.84
2018-05-15T10:07:46.350Z,1010.86
2018-05-15T10:08:46.291Z,1010.86
2018-05-15T10:09:46.311Z,1010.82
2018-05-15T10:10:46.372Z,1010.85
2018-05-15T10:11:46.377Z,1010.85
2018-05-15T10:12:46.412Z,1010.83
2018-05-15T10:13:46.689Z,1010.83
2018-05-15T10:14:46.472Z,1010.82
2018-05-15T10:15:46.504Z,1010.85
2018-05-15T10:16:46.553Z,1010.80
2018-05-15T10:17:46.570Z,1010.82
2018-05-15T10:18:46.603Z,1010.80
2018-05-15T10:19:46.628Z,1010.79
2018-05-15T10:20:46.923Z,1010.78
2018-05-15T10:21:46.689Z,1010.79
2018-05-15T10:22:46.726Z,1010.79
2018-05-15T10:23:46.768Z,1010.76
2018-05-15T10:24:46.812Z,1010.73
2018-05-15T10:25:46.817Z,1010.74
2018-05-15T10:26:46.852Z,1010.75
2018-05-15T10:27:47.140Z,1010.70
2018-05-15T10:28:46.919Z,1010.68
2018-05-15T10:29:46.943Z,1010.70
2018-05-15T10:30:46.976Z,1010.72
2018-05-15T10:31:47.008Z,1010.73
2018-05-15T10:32:47.037Z,1010.73
2018-05-15T10:33:47.070Z,1010.73
2018-05-15T10:34:47.357Z,1010.72
2018-05-15T10:35:47.144Z,1010.69
2018-05-15T10:36:47.209Z,1010.75
2018-05-15T10:37:47.246Z,1010.70
2018-05-15T10:38:47.229Z,1010.67
2018-05-15T10:39:47.260Z,1010.65
2018-05-15T10:40:47.295Z,1010.65
2018-05-15T10:41:47.577Z,1010.69
2018-05-15T10:42:47.359Z,1010.67
2018-05-15T10:43:47.401Z,1010.67
2018-05-15T10:44:47.425Z,1010.64
2018-05-15T10:45:47.451Z,1010.68
2018-05-15T10:46:47.495Z,1010.69
2018-05-15T10:47:47.516Z,1010.66
2018-05-15T10:48:47.798Z,1010.69
2018-05-15T10:49:47.598Z,1010.64
2018-05-15T10:50:47.700Z,1010.67
2018-05-15T10:51:47.654Z,1010.64
2018-05-15T10:52:47.681Z,1010.69
2018-05-15T10:53:47.700Z,1010.69
2018-05-15T10:54:47.733Z,1010.66
2018-05-15T10:55:48.065Z,1010.69
2018-05-15T10:56:47.803Z,1010.69
2018-05-15T10:57:47.833Z,1010.65
2018-05-15T10:58:47.873Z,1010.69
2018-05-15T10:59:47.893Z,1010.66
2018-05-15T11:00:47.924Z,1010.66
2018-05-15T11:01:48.210Z,1010.66
2018-05-15T11:02:47.987Z,1010.63
2018-05-15T11:03:48.021Z,1010.67
2018-05-15T11:04:48.051Z,1010.65
2018-05-15T11:05:48.100Z,1010.65
2018-05-15T11:06:48.114Z,1010.64
2018-05-15T11:07:48.449Z,1010.62
2018-05-15T11:08:48.239Z,1010.63
2018-05-15T11:09:48.226Z,1010.64
2018-05-15T11:10:48.284Z,1010.69
2018-05-15T11:11:48.327Z,1010.68
2018-05-15T11:12:48.383Z,1010.66
2018-05-15T11:13:48.349Z,1010.69
2018-05-15T11:14:48.379Z,1010.64
2018-05-15T11:15:48.410Z,1010.62
2018-05-15T11:16:48.451Z,1010.64
2018-05-15T11:17:48.509Z,1010.61
2018-05-15T11:18:48.699Z,1010.63
2018-05-15T11:19:48.553Z,1010.62
2018-05-15T11:20:48.573Z,1010.61
2018-05-15T11:21:48.605Z,1010.63
2018-05-15T11:22:48.630Z,1010.63
2018-05-15T11:23:48.744Z,1010.69
2018-05-15T11:24:48.699Z,1010.63
2018-05-15T11:25:48.979Z,1010.61
2018-05-15T11:26:48.760Z,1010.59
2018-05-15T11:27:48.798Z,1010.61
2018-05-15T11:28:48.824Z,1010.64
2018-05-15T11:29:48.906Z,1010.66
2018-05-15T11:30:48.900Z,1010.63
2018-05-15T11:31:49.173Z,1010.64
2018-05-15T11:32:49.013Z,1010.60
2018-05-15T11:33:49.006Z,1010.59
2018-05-15T11:34:49.027Z,1010.59
2018-05-15T11:35:49.053Z,1010.61
2018-05-15T11:36:49.094Z,1010.59
2018-05-15T11:37:49.429Z,1010.58
2018-05-15T11:38:49.232Z,1010.57
2018-05-15T11:39:49.251Z,1010.52
2018-05-15T11:40:49.246Z,1010.52
2018-05-15T11:41:49.265Z,1010.50
2018-05-15T11:42:49.284Z,1010.49
2018-05-15T11:43:49.558Z,1010.48
2018-05-15T11:44:49.357Z,1010.51
2018-05-15T11:45:49.391Z,1010.48
2018-05-15T11:46:49.414Z,1010.51
2018-05-15T11:47:49.800Z,1010.48
2018-05-15T11:48:50.385Z,1010.53
2018-05-15T11:49:50.742Z,1010.51
2018-05-15T11:50:50.892Z,1010.49
2018-05-15T11:51:50.358Z,1010.54
2018-05-15T11:52:50.129Z,1010.55
2018-05-15T11:53:49.641Z,1010.58
2018-05-15T11:54:49.675Z,1010.54
2018-05-15T11:55:50.067Z,1010.52
2018-05-15T11:56:49.736Z,1010.55
2018-05-15T11:57:49.811Z,1010.51
2018-05-15T11:58:49.800Z,1010.55
2018-05-15T11:59:49.909Z,1010.54
2018-05-15T12:00:49.861Z,1010.52
2018-05-15T12:01:50.196Z,1010.50
2018-05-15T12:02:50.017Z,1010.50
2018-05-15T12:03:50.048Z,1010.48
2018-05-15T12:04:49.993Z,1010.51
2018-05-15T12:05:50.055Z,1010.50